sensor_id;sensor_type;location;lat;lon;timestamp;temperature;humidity
44900;DHT22;30628;51.188;6.770;2023-06-22T00:01:20;25.10;93.50
44900;DHT22;30628;51.188;6.770;2023-06-22T00:03:48;25.10;93.70
44900;DHT22;30628;51.188;6.770;2023-06-22T00:06:14;25.20;93.50
44900;DHT22;30628;51.188;6.770;2023-06-22T00:08:40;25.20;93.60
44900;DHT22;30628;51.188;6.770;2023-06-22T00:11:06;25.30;93.50
44900;DHT22;30628;51.188;6.770;2023-06-22T00:13:33;25.40;93.70
44900;DHT22;30628;51.188;6.770;2023-06-22T00:15:59;25.50;93.60
44900;DHT22;30628;51.188;6.770;2023-06-22T00:18:25;25.70;93.40
44900;DHT22;30628;51.188;6.770;2023-06-22T00:20:55;25.50;93.60
44900;DHT22;30628;51.188;6.770;2023-06-22T00:23:24;25.30;93.80
44900;DHT22;30628;51.188;6.770;2023-06-22T00:25:50;25.40;93.50
44900;DHT22;30628;51.188;6.770;2023-06-22T00:28:16;25.30;93.50
44900;DHT22;30628;51.188;6.770;2023-06-22T00:30:46;25.10;93.80
44900;DHT22;30628;51.188;6.770;2023-06-22T00:33:12;25.20;93.70
44900;DHT22;30628;51.188;6.770;2023-06-22T00:35:38;25.00;93.70
44900;DHT22;30628;51.188;6.770;2023-06-22T00:38:07;25.00;93.80
44900;DHT22;30628;51.188;6.770;2023-06-22T00:40:34;25.10;93.70
44900;DHT22;30628;51.188;6.770;2023-06-22T00:43:00;25.00;94.30
44900;DHT22;30628;51.188;6.770;2023-06-22T00:45:26;24.80;93.90
44900;DHT22;30628;51.188;6.770;2023-06-22T00:47:55;24.80;94.20
44900;DHT22;30628;51.188;6.770;2023-06-22T00:50:23;24.60;94.30
44900;DHT22;30628;51.188;6.770;2023-06-22T00:52:52;24.80;94.40
44900;DHT22;30628;51.188;6.770;2023-06-22T00:55:26;24.80;94.50
44900;DHT22;30628;51.188;6.770;2023-06-22T00:57:53;24.60;94.70
44900;DHT22;30628;51.188;6.770;2023-06-22T01:00:23;24.60;95.10
44900;DHT22;30628;51.188;6.770;2023-06-22T01:02:53;24.60;95.00
44900;DHT22;30628;51.188;6.770;2023-06-22T01:05:21;24.50;95.30
44900;DHT22;30628;51.188;6.770;2023-06-22T01:10:55;24.40;95.60
44900;DHT22;30628;51.188;6.770;2023-06-22T01:16:41;24.30;95.90
44900;DHT22;30628;51.188;6.770;2023-06-22T01:21:57;24.30;96.20
44900;DHT22;30628;51.188;6.770;2023-06-22T01:24:45;24.20;96.30
44900;DHT22;30628;51.188;6.770;2023-06-22T01:27:52;24.20;96.40
44900;DHT22;30628;51.188;6.770;2023-06-22T01:30:20;24.20;96.50
44900;DHT22;30628;51.188;6.770;2023-06-22T01:32:47;24.10;96.70
44900;DHT22;30628;51.188;6.770;2023-06-22T01:35:15;24.00;97.00
44900;DHT22;30628;51.188;6.770;2023-06-22T01:37:41;24.10;97.00
44900;DHT22;30628;51.188;6.770;2023-06-22T01:40:08;23.90;97.20
44900;DHT22;30628;51.188;6.770;2023-06-22T01:42:36;24.20;97.00
44900;DHT22;30628;51.188;6.770;2023-06-22T01:45:03;24.10;97.20
44900;DHT22;30628;51.188;6.770;2023-06-22T01:47:29;24.00;97.30
44900;DHT22;30628;51.188;6.770;2023-06-22T01:49:56;23.90;97.40
44900;DHT22;30628;51.188;6.770;2023-06-22T01:52:22;23.90;97.50
44900;DHT22;30628;51.188;6.770;2023-06-22T01:54:49;24.00;97.50
44900;DHT22;30628;51.188;6.770;2023-06-22T01:57:15;23.90;97.50
44900;DHT22;30628;51.188;6.770;2023-06-22T02:02:52;24.10;97.70
44900;DHT22;30628;51.188;6.770;2023-06-22T02:05:19;24.00;97.80
44900;DHT22;30628;51.188;6.770;2023-06-22T02:07:52;24.00;97.70
44900;DHT22;30628;51.188;6.770;2023-06-22T02:10:23;24.00;97.80
44900;DHT22;30628;51.188;6.770;2023-06-22T02:12:51;24.00;98.20
44900;DHT22;30628;51.188;6.770;2023-06-22T02:15:18;24.00;97.80
44900;DHT22;30628;51.188;6.770;2023-06-22T02:17:44;24.10;97.90
44900;DHT22;30628;51.188;6.770;2023-06-22T02:20:14;24.00;97.90
44900;DHT22;30628;51.188;6.770;2023-06-22T02:22:40;24.10;98.00
44900;DHT22;30628;51.188;6.770;2023-06-22T02:25:07;24.00;98.00
44900;DHT22;30628;51.188;6.770;2023-06-22T02:27:33;23.90;98.40
44900;DHT22;30628;51.188;6.770;2023-06-22T02:30:00;23.90;98.40
44900;DHT22;30628;51.188;6.770;2023-06-22T02:32:26;23.70;98.70
44900;DHT22;30628;51.188;6.770;2023-06-22T02:34:53;23.70;98.90
44900;DHT22;30628;51.188;6.770;2023-06-22T02:37:19;23.60;99.10
44900;DHT22;30628;51.188;6.770;2023-06-22T02:39:45;23.50;99.30
44900;DHT22;30628;51.188;6.770;2023-06-22T02:42:11;23.50;99.40
44900;DHT22;30628;51.188;6.770;2023-06-22T02:44:37;23.50;99.30
44900;DHT22;30628;51.188;6.770;2023-06-22T02:47:04;23.60;99.40
44900;DHT22;30628;51.188;6.770;2023-06-22T02:49:30;23.60;99.30
44900;DHT22;30628;51.188;6.770;2023-06-22T02:51:57;23.70;99.20
44900;DHT22;30628;51.188;6.770;2023-06-22T02:54:23;23.60;99.10
44900;DHT22;30628;51.188;6.770;2023-06-22T02:56:49;23.70;99.10
44900;DHT22;30628;51.188;6.770;2023-06-22T02:59:16;23.70;99.20
44900;DHT22;30628;51.188;6.770;2023-06-22T03:01:42;23.80;99.00
44900;DHT22;30628;51.188;6.770;2023-06-22T03:04:09;23.70;99.20
44900;DHT22;30628;51.188;6.770;2023-06-22T03:06:36;23.80;99.20
44900;DHT22;30628;51.188;6.770;2023-06-22T03:09:04;23.80;99.10
44900;DHT22;30628;51.188;6.770;2023-06-22T03:11:31;23.90;99.00
44900;DHT22;30628;51.188;6.770;2023-06-22T03:13:58;23.90;99.00
44900;DHT22;30628;51.188;6.770;2023-06-22T03:16:24;24.10;98.90
44900;DHT22;30628;51.188;6.770;2023-06-22T03:18:50;24.00;98.90
44900;DHT22;30628;51.188;6.770;2023-06-22T03:21:16;24.10;98.60
44900;DHT22;30628;51.188;6.770;2023-06-22T03:23:43;24.20;98.70
44900;DHT22;30628;51.188;6.770;2023-06-22T03:26:09;24.30;98.50
44900;DHT22;30628;51.188;6.770;2023-06-22T03:28:37;24.40;98.00
44900;DHT22;30628;51.188;6.770;2023-06-22T03:31:04;24.40;98.60
44900;DHT22;30628;51.188;6.770;2023-06-22T03:33:32;24.20;98.30
44900;DHT22;30628;51.188;6.770;2023-06-22T03:35:58;24.40;98.40
44900;DHT22;30628;51.188;6.770;2023-06-22T03:38:24;24.40;98.50
44900;DHT22;30628;51.188;6.770;2023-06-22T03:40:51;24.10;98.80
44900;DHT22;30628;51.188;6.770;2023-06-22T03:43:17;24.10;98.80
44900;DHT22;30628;51.188;6.770;2023-06-22T03:45:43;23.90;99.20
44900;DHT22;30628;51.188;6.770;2023-06-22T03:48:12;24.00;99.20
44900;DHT22;30628;51.188;6.770;2023-06-22T03:50:38;23.90;99.60
44900;DHT22;30628;51.188;6.770;2023-06-22T03:53:04;24.00;99.50
44900;DHT22;30628;51.188;6.770;2023-06-22T03:55:30;23.90;99.50
44900;DHT22;30628;51.188;6.770;2023-06-22T03:57:57;23.70;99.70
44900;DHT22;30628;51.188;6.770;2023-06-22T04:00:23;23.70;99.60
44900;DHT22;30628;51.188;6.770;2023-06-22T04:02:52;23.70;99.90
44900;DHT22;30628;51.188;6.770;2023-06-22T04:05:18;23.60;99.90
44900;DHT22;30628;51.188;6.770;2023-06-22T04:07:45;23.70;99.80
44900;DHT22;30628;51.188;6.770;2023-06-22T04:10:11;23.80;99.60
44900;DHT22;30628;51.188;6.770;2023-06-22T04:12:37;23.90;99.60
44900;DHT22;30628;51.188;6.770;2023-06-22T04:15:03;23.90;99.30
44900;DHT22;30628;51.188;6.770;2023-06-22T04:17:30;23.90;99.20
44900;DHT22;30628;51.188;6.770;2023-06-22T04:19:56;23.90;99.30
44900;DHT22;30628;51.188;6.770;2023-06-22T04:22:22;24.10;99.30
44900;DHT22;30628;51.188;6.770;2023-06-22T04:24:48;24.00;99.40
44900;DHT22;30628;51.188;6.770;2023-06-22T04:27:14;23.90;99.40
44900;DHT22;30628;51.188;6.770;2023-06-22T04:29:40;24.00;99.40
44900;DHT22;30628;51.188;6.770;2023-06-22T04:32:15;24.10;99.10
44900;DHT22;30628;51.188;6.770;2023-06-22T04:34:42;24.10;99.40
44900;DHT22;30628;51.188;6.770;2023-06-22T04:37:08;24.10;99.00
44900;DHT22;30628;51.188;6.770;2023-06-22T04:39:35;24.10;99.20
44900;DHT22;30628;51.188;6.770;2023-06-22T04:42:01;24.10;99.20
44900;DHT22;30628;51.188;6.770;2023-06-22T04:44:28;24.00;99.10
44900;DHT22;30628;51.188;6.770;2023-06-22T04:46:56;24.10;98.80
44900;DHT22;30628;51.188;6.770;2023-06-22T04:49:35;24.30;98.70
44900;DHT22;30628;51.188;6.770;2023-06-22T04:52:06;24.30;99.00
44900;DHT22;30628;51.188;6.770;2023-06-22T04:54:34;24.50;98.30
44900;DHT22;30628;51.188;6.770;2023-06-22T04:57:05;24.40;98.60
44900;DHT22;30628;51.188;6.770;2023-06-22T04:59:37;24.40;98.70
44900;DHT22;30628;51.188;6.770;2023-06-22T05:02:05;24.30;99.00
44900;DHT22;30628;51.188;6.770;2023-06-22T05:04:34;24.30;99.10
44900;DHT22;30628;51.188;6.770;2023-06-22T05:07:04;24.00;99.30
44900;DHT22;30628;51.188;6.770;2023-06-22T05:09:31;23.90;99.50
44900;DHT22;30628;51.188;6.770;2023-06-22T05:11:59;24.00;99.30
44900;DHT22;30628;51.188;6.770;2023-06-22T05:14:29;23.90;99.50
44900;DHT22;30628;51.188;6.770;2023-06-22T05:17:04;23.90;99.60
44900;DHT22;30628;51.188;6.770;2023-06-22T05:19:39;23.90;99.60
44900;DHT22;30628;51.188;6.770;2023-06-22T05:22:10;23.80;99.90
44900;DHT22;30628;51.188;6.770;2023-06-22T05:24:38;23.80;99.90
44900;DHT22;30628;51.188;6.770;2023-06-22T05:27:04;23.70;99.90
44900;DHT22;30628;51.188;6.770;2023-06-22T05:29:30;23.80;99.60
44900;DHT22;30628;51.188;6.770;2023-06-22T05:31:56;24.00;99.30
44900;DHT22;30628;51.188;6.770;2023-06-22T05:34:23;23.90;99.40
44900;DHT22;30628;51.188;6.770;2023-06-22T05:36:49;23.80;99.50
44900;DHT22;30628;51.188;6.770;2023-06-22T05:39:15;23.90;99.70
44900;DHT22;30628;51.188;6.770;2023-06-22T05:41:42;23.90;99.40
44900;DHT22;30628;51.188;6.770;2023-06-22T05:44:09;23.90;99.50
44900;DHT22;30628;51.188;6.770;2023-06-22T05:46:35;23.80;99.40
44900;DHT22;30628;51.188;6.770;2023-06-22T05:49:01;23.80;99.50
44900;DHT22;30628;51.188;6.770;2023-06-22T05:51:27;23.90;99.30
44900;DHT22;30628;51.188;6.770;2023-06-22T05:53:53;23.80;99.50
44900;DHT22;30628;51.188;6.770;2023-06-22T05:56:20;23.90;99.40
44900;DHT22;30628;51.188;6.770;2023-06-22T05:58:46;23.80;99.90
44900;DHT22;30628;51.188;6.770;2023-06-22T06:01:13;23.90;99.60
44900;DHT22;30628;51.188;6.770;2023-06-22T06:03:40;23.90;99.70
44900;DHT22;30628;51.188;6.770;2023-06-22T06:06:07;24.10;99.40
44900;DHT22;30628;51.188;6.770;2023-06-22T06:08:33;24.20;99.50
44900;DHT22;30628;51.188;6.770;2023-06-22T06:11:00;24.10;99.50
44900;DHT22;30628;51.188;6.770;2023-06-22T06:13:26;24.10;99.70
44900;DHT22;30628;51.188;6.770;2023-06-22T06:15:52;24.00;99.60
44900;DHT22;30628;51.188;6.770;2023-06-22T06:18:21;24.00;99.90
44900;DHT22;30628;51.188;6.770;2023-06-22T06:20:47;23.90;99.90
44900;DHT22;30628;51.188;6.770;2023-06-22T06:23:13;24.00;99.90
44900;DHT22;30628;51.188;6.770;2023-06-22T06:25:39;24.10;99.90
44900;DHT22;30628;51.188;6.770;2023-06-22T06:28:06;24.00;99.90
44900;DHT22;30628;51.188;6.770;2023-06-22T06:30:32;23.90;99.90
44900;DHT22;30628;51.188;6.770;2023-06-22T06:32:58;24.00;99.90
44900;DHT22;30628;51.188;6.770;2023-06-22T06:35:24;24.00;99.90
44900;DHT22;30628;51.188;6.770;2023-06-22T06:37:50;23.90;99.90
44900;DHT22;30628;51.188;6.770;2023-06-22T06:40:18;23.90;99.90
44900;DHT22;30628;51.188;6.770;2023-06-22T06:42:51;23.80;99.90
44900;DHT22;30628;51.188;6.770;2023-06-22T06:45:18;23.90;99.90
44900;DHT22;30628;51.188;6.770;2023-06-22T06:47:45;24.00;99.90
44900;DHT22;30628;51.188;6.770;2023-06-22T06:50:12;23.90;99.90
44900;DHT22;30628;51.188;6.770;2023-06-22T06:52:38;23.90;99.90
44900;DHT22;30628;51.188;6.770;2023-06-22T06:55:05;23.90;99.90
44900;DHT22;30628;51.188;6.770;2023-06-22T06:57:41;23.80;99.90
44900;DHT22;30628;51.188;6.770;2023-06-22T07:00:09;23.60;99.90
44900;DHT22;30628;51.188;6.770;2023-06-22T07:02:39;23.70;99.90
44900;DHT22;30628;51.188;6.770;2023-06-22T07:05:09;23.20;99.90
44900;DHT22;30628;51.188;6.770;2023-06-22T07:07:35;23.20;99.90
44900;DHT22;30628;51.188;6.770;2023-06-22T07:10:01;23.60;99.90
44900;DHT22;30628;51.188;6.770;2023-06-22T07:12:27;23.50;99.90
44900;DHT22;30628;51.188;6.770;2023-06-22T07:14:54;23.80;99.90
44900;DHT22;30628;51.188;6.770;2023-06-22T07:17:20;23.90;99.90
44900;DHT22;30628;51.188;6.770;2023-06-22T07:19:46;24.20;99.90
44900;DHT22;30628;51.188;6.770;2023-06-22T07:22:12;24.50;99.90
44900;DHT22;30628;51.188;6.770;2023-06-22T07:24:38;24.60;99.90
44900;DHT22;30628;51.188;6.770;2023-06-22T07:27:04;24.70;99.90
44900;DHT22;30628;51.188;6.770;2023-06-22T07:29:32;24.40;99.90
44900;DHT22;30628;51.188;6.770;2023-06-22T07:31:59;24.60;99.90
44900;DHT22;30628;51.188;6.770;2023-06-22T07:34:26;24.40;99.90
44900;DHT22;30628;51.188;6.770;2023-06-22T07:36:52;24.50;99.90
44900;DHT22;30628;51.188;6.770;2023-06-22T07:39:19;24.30;99.90
44900;DHT22;30628;51.188;6.770;2023-06-22T07:41:48;24.50;99.90
44900;DHT22;30628;51.188;6.770;2023-06-22T07:44:14;24.60;99.90
44900;DHT22;30628;51.188;6.770;2023-06-22T07:46:40;24.80;99.90
44900;DHT22;30628;51.188;6.770;2023-06-22T07:49:06;24.60;99.90
44900;DHT22;30628;51.188;6.770;2023-06-22T07:51:34;24.70;99.90
44900;DHT22;30628;51.188;6.770;2023-06-22T07:54:00;25.00;99.90
44900;DHT22;30628;51.188;6.770;2023-06-22T07:56:27;25.20;99.90
44900;DHT22;30628;51.188;6.770;2023-06-22T07:58:53;25.20;99.90
44900;DHT22;30628;51.188;6.770;2023-06-22T08:01:19;25.20;99.90
44900;DHT22;30628;51.188;6.770;2023-06-22T08:03:49;25.20;99.90
44900;DHT22;30628;51.188;6.770;2023-06-22T08:06:15;25.30;99.90
44900;DHT22;30628;51.188;6.770;2023-06-22T08:08:42;25.40;99.90
44900;DHT22;30628;51.188;6.770;2023-06-22T08:11:09;25.50;99.90
44900;DHT22;30628;51.188;6.770;2023-06-22T08:13:35;25.70;99.90
44900;DHT22;30628;51.188;6.770;2023-06-22T08:16:01;25.80;99.90
44900;DHT22;30628;51.188;6.770;2023-06-22T08:18:28;25.50;99.90
44900;DHT22;30628;51.188;6.770;2023-06-22T08:20:54;25.20;99.90
44900;DHT22;30628;51.188;6.770;2023-06-22T08:23:20;25.00;99.90
44900;DHT22;30628;51.188;6.770;2023-06-22T08:25:46;25.40;99.90
44900;DHT22;30628;51.188;6.770;2023-06-22T08:28:14;25.50;99.90
44900;DHT22;30628;51.188;6.770;2023-06-22T08:30:40;25.70;99.90
44900;DHT22;30628;51.188;6.770;2023-06-22T08:33:06;25.90;99.90
44900;DHT22;30628;51.188;6.770;2023-06-22T08:35:32;26.00;99.90
44900;DHT22;30628;51.188;6.770;2023-06-22T08:37:58;26.10;99.90
44900;DHT22;30628;51.188;6.770;2023-06-22T08:40:25;26.00;99.90
44900;DHT22;30628;51.188;6.770;2023-06-22T08:42:51;26.10;99.90
44900;DHT22;30628;51.188;6.770;2023-06-22T08:45:18;26.10;99.90
44900;DHT22;30628;51.188;6.770;2023-06-22T08:47:44;26.10;99.90
44900;DHT22;30628;51.188;6.770;2023-06-22T08:50:11;26.10;99.90
44900;DHT22;30628;51.188;6.770;2023-06-22T08:52:38;26.20;99.90
44900;DHT22;30628;51.188;6.770;2023-06-22T08:55:07;26.40;99.90
44900;DHT22;30628;51.188;6.770;2023-06-22T08:57:34;26.70;99.90
44900;DHT22;30628;51.188;6.770;2023-06-22T09:00:07;26.80;99.90
44900;DHT22;30628;51.188;6.770;2023-06-22T09:02:43;26.90;99.90
44900;DHT22;30628;51.188;6.770;2023-06-22T09:05:09;27.00;99.90
44900;DHT22;30628;51.188;6.770;2023-06-22T09:07:35;27.30;99.90
44900;DHT22;30628;51.188;6.770;2023-06-22T09:10:02;27.50;99.90
44900;DHT22;30628;51.188;6.770;2023-06-22T09:12:31;27.50;99.90
44900;DHT22;30628;51.188;6.770;2023-06-22T09:14:59;27.50;99.90
44900;DHT22;30628;51.188;6.770;2023-06-22T09:17:29;27.50;99.90
44900;DHT22;30628;51.188;6.770;2023-06-22T09:19:55;27.50;99.90
44900;DHT22;30628;51.188;6.770;2023-06-22T09:22:21;27.60;99.90
44900;DHT22;30628;51.188;6.770;2023-06-22T09:24:48;27.70;99.90
44900;DHT22;30628;51.188;6.770;2023-06-22T09:27:14;27.60;99.90
44900;DHT22;30628;51.188;6.770;2023-06-22T09:29:40;27.60;99.90
44900;DHT22;30628;51.188;6.770;2023-06-22T09:32:06;27.70;99.90
44900;DHT22;30628;51.188;6.770;2023-06-22T09:34:33;27.70;99.90
44900;DHT22;30628;51.188;6.770;2023-06-22T09:36:59;27.90;99.90
44900;DHT22;30628;51.188;6.770;2023-06-22T09:39:26;27.90;99.90
44900;DHT22;30628;51.188;6.770;2023-06-22T09:41:52;28.00;99.90
44900;DHT22;30628;51.188;6.770;2023-06-22T09:44:19;28.10;99.90
44900;DHT22;30628;51.188;6.770;2023-06-22T09:46:45;28.10;99.90
44900;DHT22;30628;51.188;6.770;2023-06-22T09:49:11;28.30;99.90
44900;DHT22;30628;51.188;6.770;2023-06-22T09:51:37;28.40;99.80
44900;DHT22;30628;51.188;6.770;2023-06-22T09:54:03;28.60;99.90
44900;DHT22;30628;51.188;6.770;2023-06-22T09:56:29;28.60;99.70
44900;DHT22;30628;51.188;6.770;2023-06-22T09:58:56;28.60;99.70
44900;DHT22;30628;51.188;6.770;2023-06-22T10:01:22;28.80;98.90
44900;DHT22;30628;51.188;6.770;2023-06-22T10:03:49;28.80;98.60
44900;DHT22;30628;51.188;6.770;2023-06-22T10:06:15;28.60;98.60
44900;DHT22;30628;51.188;6.770;2023-06-22T10:08:41;28.70;99.30
44900;DHT22;30628;51.188;6.770;2023-06-22T10:11:07;28.70;99.60
44900;DHT22;30628;51.188;6.770;2023-06-22T10:13:34;28.80;99.20
44900;DHT22;30628;51.188;6.770;2023-06-22T10:16:00;28.90;98.70
44900;DHT22;30628;51.188;6.770;2023-06-22T10:18:26;28.70;98.70
44900;DHT22;30628;51.188;6.770;2023-06-22T10:20:52;28.60;99.00
44900;DHT22;30628;51.188;6.770;2023-06-22T10:23:19;28.60;99.30
44900;DHT22;30628;51.188;6.770;2023-06-22T10:25:46;28.60;99.90
44900;DHT22;30628;51.188;6.770;2023-06-22T10:28:12;28.50;99.90
44900;DHT22;30628;51.188;6.770;2023-06-22T10:30:39;28.50;99.70
44900;DHT22;30628;51.188;6.770;2023-06-22T10:33:09;28.40;99.90
44900;DHT22;30628;51.188;6.770;2023-06-22T10:35:36;28.40;99.90
44900;DHT22;30628;51.188;6.770;2023-06-22T10:38:06;28.50;99.90
44900;DHT22;30628;51.188;6.770;2023-06-22T10:40:32;28.50;99.90
44900;DHT22;30628;51.188;6.770;2023-06-22T10:42:59;28.40;99.90
44900;DHT22;30628;51.188;6.770;2023-06-22T10:45:25;28.20;99.90
44900;DHT22;30628;51.188;6.770;2023-06-22T10:47:51;28.30;99.90
44900;DHT22;30628;51.188;6.770;2023-06-22T10:50:18;28.40;99.90
44900;DHT22;30628;51.188;6.770;2023-06-22T10:52:44;28.40;99.80
44900;DHT22;30628;51.188;6.770;2023-06-22T10:55:10;28.40;98.80
44900;DHT22;30628;51.188;6.770;2023-06-22T10:57:36;28.40;99.30
44900;DHT22;30628;51.188;6.770;2023-06-22T11:00:03;28.40;98.90
44900;DHT22;30628;51.188;6.770;2023-06-22T11:02:33;28.30;99.90
44900;DHT22;30628;51.188;6.770;2023-06-22T11:04:59;28.20;99.90
44900;DHT22;30628;51.188;6.770;2023-06-22T11:07:29;28.10;99.90
44900;DHT22;30628;51.188;6.770;2023-06-22T11:09:55;28.10;99.90
44900;DHT22;30628;51.188;6.770;2023-06-22T11:12:22;27.80;99.90
44900;DHT22;30628;51.188;6.770;2023-06-22T11:14:48;27.60;99.90
44900;DHT22;30628;51.188;6.770;2023-06-22T11:17:17;27.50;99.90
44900;DHT22;30628;51.188;6.770;2023-06-22T11:19:44;27.40;99.90
44900;DHT22;30628;51.188;6.770;2023-06-22T11:22:10;27.10;99.90
44900;DHT22;30628;51.188;6.770;2023-06-22T11:24:37;26.90;99.90
44900;DHT22;30628;51.188;6.770;2023-06-22T11:27:03;26.40;99.90
44900;DHT22;30628;51.188;6.770;2023-06-22T11:29:29;26.20;99.90
44900;DHT22;30628;51.188;6.770;2023-06-22T11:31:56;26.00;99.90
44900;DHT22;30628;51.188;6.770;2023-06-22T11:34:22;25.90;99.90
44900;DHT22;30628;51.188;6.770;2023-06-22T11:36:49;25.60;99.90
44900;DHT22;30628;51.188;6.770;2023-06-22T11:39:15;25.50;99.90
44900;DHT22;30628;51.188;6.770;2023-06-22T11:41:41;25.60;99.90
44900;DHT22;30628;51.188;6.770;2023-06-22T11:44:08;25.60;99.90
44900;DHT22;30628;51.188;6.770;2023-06-22T11:46:34;25.30;99.90
44900;DHT22;30628;51.188;6.770;2023-06-22T11:49:01;25.30;99.90
44900;DHT22;30628;51.188;6.770;2023-06-22T11:51:27;25.20;99.90
44900;DHT22;30628;51.188;6.770;2023-06-22T11:53:54;25.20;99.90
44900;DHT22;30628;51.188;6.770;2023-06-22T11:56:24;25.00;99.90
44900;DHT22;30628;51.188;6.770;2023-06-22T11:58:50;24.80;99.90
44900;DHT22;30628;51.188;6.770;2023-06-22T12:01:17;24.70;99.90
44900;DHT22;30628;51.188;6.770;2023-06-22T12:03:43;24.70;99.90
44900;DHT22;30628;51.188;6.770;2023-06-22T12:06:10;24.90;99.90
44900;DHT22;30628;51.188;6.770;2023-06-22T12:08:36;24.80;99.90
44900;DHT22;30628;51.188;6.770;2023-06-22T12:11:02;24.90;99.90
44900;DHT22;30628;51.188;6.770;2023-06-22T12:13:28;25.20;99.90
44900;DHT22;30628;51.188;6.770;2023-06-22T12:15:54;25.10;99.90
44900;DHT22;30628;51.188;6.770;2023-06-22T12:18:20;25.30;99.90
44900;DHT22;30628;51.188;6.770;2023-06-22T12:20:47;25.40;99.90
44900;DHT22;30628;51.188;6.770;2023-06-22T12:23:14;25.30;99.90
44900;DHT22;30628;51.188;6.770;2023-06-22T12:25:40;25.20;99.90
44900;DHT22;30628;51.188;6.770;2023-06-22T12:28:07;25.10;99.90
44900;DHT22;30628;51.188;6.770;2023-06-22T12:30:33;24.90;99.90
44900;DHT22;30628;51.188;6.770;2023-06-22T12:32:59;24.90;99.90
44900;DHT22;30628;51.188;6.770;2023-06-22T12:35:25;24.80;99.90
44900;DHT22;30628;51.188;6.770;2023-06-22T12:37:52;25.00;99.90
44900;DHT22;30628;51.188;6.770;2023-06-22T12:40:18;25.10;99.90
44900;DHT22;30628;51.188;6.770;2023-06-22T12:42:45;25.20;99.90
44900;DHT22;30628;51.188;6.770;2023-06-22T12:45:11;25.40;99.90
44900;DHT22;30628;51.188;6.770;2023-06-22T12:47:37;25.40;99.90
44900;DHT22;30628;51.188;6.770;2023-06-22T12:50:04;25.50;99.90
44900;DHT22;30628;51.188;6.770;2023-06-22T12:52:31;25.50;99.90
44900;DHT22;30628;51.188;6.770;2023-06-22T12:54:58;25.50;99.90
44900;DHT22;30628;51.188;6.770;2023-06-22T12:57:24;25.40;99.90
44900;DHT22;30628;51.188;6.770;2023-06-22T12:59:51;25.70;99.90
44900;DHT22;30628;51.188;6.770;2023-06-22T13:02:17;25.60;99.90
44900;DHT22;30628;51.188;6.770;2023-06-22T13:04:43;25.40;99.90
44900;DHT22;30628;51.188;6.770;2023-06-22T13:07:10;25.30;99.90
44900;DHT22;30628;51.188;6.770;2023-06-22T13:09:36;25.30;99.90
44900;DHT22;30628;51.188;6.770;2023-06-22T13:12:03;25.30;99.90
44900;DHT22;30628;51.188;6.770;2023-06-22T13:14:29;25.10;99.90
44900;DHT22;30628;51.188;6.770;2023-06-22T13:16:55;25.20;99.90
44900;DHT22;30628;51.188;6.770;2023-06-22T13:19:21;25.00;99.90
44900;DHT22;30628;51.188;6.770;2023-06-22T13:21:47;25.00;99.90
44900;DHT22;30628;51.188;6.770;2023-06-22T13:24:14;25.00;99.90
44900;DHT22;30628;51.188;6.770;2023-06-22T13:26:40;25.10;99.90
44900;DHT22;30628;51.188;6.770;2023-06-22T13:29:06;25.10;99.90
44900;DHT22;30628;51.188;6.770;2023-06-22T13:31:32;25.00;99.90
44900;DHT22;30628;51.188;6.770;2023-06-22T13:33:58;25.10;99.90
44900;DHT22;30628;51.188;6.770;2023-06-22T13:36:24;25.10;99.90
44900;DHT22;30628;51.188;6.770;2023-06-22T13:38:51;25.10;99.90
44900;DHT22;30628;51.188;6.770;2023-06-22T13:41:17;25.00;99.90
44900;DHT22;30628;51.188;6.770;2023-06-22T13:43:43;25.00;99.90
44900;DHT22;30628;51.188;6.770;2023-06-22T13:46:09;25.10;99.90
44900;DHT22;30628;51.188;6.770;2023-06-22T13:48:35;25.10;99.90
44900;DHT22;30628;51.188;6.770;2023-06-22T13:51:01;25.20;99.90
44900;DHT22;30628;51.188;6.770;2023-06-22T13:53:27;25.20;99.90
44900;DHT22;30628;51.188;6.770;2023-06-22T13:55:54;25.20;99.90
44900;DHT22;30628;51.188;6.770;2023-06-22T13:58:20;25.10;99.90
44900;DHT22;30628;51.188;6.770;2023-06-22T14:00:46;25.20;99.90
44900;DHT22;30628;51.188;6.770;2023-06-22T14:03:12;25.10;99.90
44900;DHT22;30628;51.188;6.770;2023-06-22T14:05:42;25.10;99.90
44900;DHT22;30628;51.188;6.770;2023-06-22T14:08:08;25.00;99.90
44900;DHT22;30628;51.188;6.770;2023-06-22T14:10:35;25.10;99.90
44900;DHT22;30628;51.188;6.770;2023-06-22T14:13:01;25.00;99.90
44900;DHT22;30628;51.188;6.770;2023-06-22T14:15:27;25.00;99.90
44900;DHT22;30628;51.188;6.770;2023-06-22T14:17:53;25.00;99.90
44900;DHT22;30628;51.188;6.770;2023-06-22T14:20:19;24.90;99.90
44900;DHT22;30628;51.188;6.770;2023-06-22T14:22:45;25.00;99.90
44900;DHT22;30628;51.188;6.770;2023-06-22T14:25:12;25.00;99.90
44900;DHT22;30628;51.188;6.770;2023-06-22T14:27:38;24.90;99.90
44900;DHT22;30628;51.188;6.770;2023-06-22T14:30:04;24.80;99.90
44900;DHT22;30628;51.188;6.770;2023-06-22T14:32:31;24.50;99.90
44900;DHT22;30628;51.188;6.770;2023-06-22T14:34:57;24.60;99.90
44900;DHT22;30628;51.188;6.770;2023-06-22T14:37:31;24.50;99.90
44900;DHT22;30628;51.188;6.770;2023-06-22T14:39:57;24.50;99.90
44900;DHT22;30628;51.188;6.770;2023-06-22T14:42:23;24.40;99.90
44900;DHT22;30628;51.188;6.770;2023-06-22T14:44:49;24.40;99.90
44900;DHT22;30628;51.188;6.770;2023-06-22T14:47:15;24.30;99.90
44900;DHT22;30628;51.188;6.770;2023-06-22T14:49:44;24.30;99.90
44900;DHT22;30628;51.188;6.770;2023-06-22T14:52:10;24.30;99.90
44900;DHT22;30628;51.188;6.770;2023-06-22T14:54:36;24.20;99.90
44900;DHT22;30628;51.188;6.770;2023-06-22T14:57:02;24.10;99.90
44900;DHT22;30628;51.188;6.770;2023-06-22T14:59:28;24.00;99.90
44900;DHT22;30628;51.188;6.770;2023-06-22T15:01:54;24.10;99.90
44900;DHT22;30628;51.188;6.770;2023-06-22T15:04:21;24.10;99.90
44900;DHT22;30628;51.188;6.770;2023-06-22T15:06:47;24.10;99.90
44900;DHT22;30628;51.188;6.770;2023-06-22T15:09:13;24.10;99.90
44900;DHT22;30628;51.188;6.770;2023-06-22T15:11:39;24.00;99.90
44900;DHT22;30628;51.188;6.770;2023-06-22T15:14:05;24.00;99.90
44900;DHT22;30628;51.188;6.770;2023-06-22T15:16:31;24.10;99.90
44900;DHT22;30628;51.188;6.770;2023-06-22T15:18:57;24.10;99.90
44900;DHT22;30628;51.188;6.770;2023-06-22T15:21:24;23.90;99.90
44900;DHT22;30628;51.188;6.770;2023-06-22T15:23:51;23.90;99.90
44900;DHT22;30628;51.188;6.770;2023-06-22T15:26:17;24.10;99.90
44900;DHT22;30628;51.188;6.770;2023-06-22T15:28:43;24.00;99.90
44900;DHT22;30628;51.188;6.770;2023-06-22T15:31:09;24.00;99.90
44900;DHT22;30628;51.188;6.770;2023-06-22T15:33:35;24.00;99.90
44900;DHT22;30628;51.188;6.770;2023-06-22T15:36:03;24.00;99.90
44900;DHT22;30628;51.188;6.770;2023-06-22T15:38:30;23.90;99.90
44900;DHT22;30628;51.188;6.770;2023-06-22T15:40:57;24.00;99.90